Watsonville, CA (95077)

6:16 PM PST on March 06, 2015 (GMT -0800)
Royal Oaks | Change Station
CLOSE
Current Station
Personal Weather Station
Location: Royal Oaks, CA
Elevation: 354 ft
Nearby Weather Stations

Elev 354 ft 36.90 °N, 121.71 °W | Updated 9 seconds ago

Clear
Clear
63.3 °F
Feels Like 63.3 °F
N
1.0
Wind Variable Wind from SSE
Gusts 3.0 mph

Today
High -- | Low -- °F
--% Chance of Precip.
Yesterday
High -- | Low -- °F
Precip. -- in
6:31 AM 6:05 PM
Full, 98% visible
Pressure 30.14 in
Visibility 10.0 miles
Clouds Clear
Dew Point 47 °F
Humidity 55%
Rainfall in
Snow Depth Not available.
UV 0 out of 12
Pollen 8.30 out of 12
Air Quality Not available.
Flu Activity Not available.
METAR KWVI 070153Z AUTO 18003KT 10SM CLR 18/11 A3013 RMK AO2 SLP204 T01780111

More Conditions Fewer Conditions

Pressure 30.14 in
Visibility 10.0 miles
Clouds Clear
Dew Point 47 °F
Humidity 55%
Rainfall in
Snow Depth Not available.
UV 0 out of 12
Pollen 8.30 out of 12
Air Quality Not available.
Flu Activity Not available.
METAR KWVI 070153Z AUTO 18003KT 10SM CLR 18/11 A3013 RMK AO2 SLP204 T01780111

More Conditions Fewer Conditions

10-Day Weather Forecast

Almanac

Astronomy

Mar. 06, 2015 Rise Set
Actual Time
Civil Twilight
Nautical Twilight
Astronomical Twilight
Moon
Length of Visible Light
Length of Day
Tomorrow will be .
, % of the Moon is Illuminated

Today's Extremes

State Highs State Lows

Community

WunderPhotos

Upload Photos

1,803,499 photos uploaded!

WunderBlogs® & News

Nearby

Air Quality

  Air Quality AQ Index Pollutant
Not available.

Snow Depth

Station Depth Elevation

Earthquake Activity

City Distance Mag. Time & Date
Minimum magnitude displayed is 2.5.

Coastal Water Temperatures

Place Temperature

Nearby Weather Stations